Time;durP1;ratioP1;P1;durP2;ratioP2;P2;SDS_P1;SDS_P2;PMS_P1;PMS_P2;Temp;Humidity;BMP_temperature;BMP_pressure;BME280_temperature;BME280_humidity;BME280_pressure;Samples;Min_cycle;Max_cycle;Signal;HPM_P1;HPM_P2
2021/09/03 00:01:43;;;;;;;10.05;5.22;;;;;;;;;;6174208;23;20175;-89
2021/09/03 00:04:48;;;;;;;9.80;5.45;;;;;;;;;;6171046;23;20211;-91
2021/09/03 00:07:53;;;;;;;10.52;5.70;;;;;;;;;;6172302;23;20193;-91
2021/09/03 00:11:00;;;;;;;18.95;5.70;;;;;;;;;;6171956;23;20486;-90
2021/09/03 00:14:06;;;;;;;11.25;5.68;;;;;;;;;;6172524;23;20173;-92
2021/09/03 00:17:11;;;;;;;9.65;5.30;;;;;;;;;;6170996;23;20180;-91
2021/09/03 00:20:17;;;;;;;14.23;5.05;;;;;;;;;;6172367;23;20193;-91
2021/09/03 00:23:22;;;;;;;9.68;5.22;;;;;;;;;;6171906;23;20237;-91
2021/09/03 00:26:29;;;;;;;9.98;5.07;;;;;;;;;;6172138;23;20170;-93
2021/09/03 00:29:34;;;;;;;9.20;5.00;;;;;;;;;;6172175;23;20169;-92
2021/09/03 00:32:39;;;;;;;11.15;5.32;;;;;;;;;;6171964;23;20168;-91
2021/09/03 00:35:44;;;;;;;10.63;5.55;;;;;;;;;;6174142;23;20148;-92
2021/09/03 00:38:49;;;;;;;8.38;5.03;;;;;;;;;;6171961;23;20164;-91
2021/09/03 00:41:56;;;;;;;9.95;5.18;;;;;;;;;;6171803;23;20181;-92
2021/09/03 00:45:01;;;;;;;9.38;5.18;;;;;;;;;;6171643;23;20515;-92
2021/09/03 00:48:06;;;;;;;11.27;5.47;;;;;;;;;;6170964;23;20173;-93
2021/09/03 00:51:11;;;;;;;12.70;5.50;;;;;;;;;;6171655;23;20271;-92
2021/09/03 00:54:17;;;;;;;10.10;5.22;;;;;;;;;;6172152;23;20189;-91
2021/09/03 00:57:24;;;;;;;19.63;5.60;;;;;;;;;;6173375;23;20205;-92
2021/09/03 01:00:29;;;;;;;11.50;5.20;;;;;;;;;;6173383;23;20205;-90
2021/09/03 01:03:34;;;;;;;9.27;4.43;;;;;;;;;;6173944;23;20192;-90
2021/09/03 01:06:39;;;;;;;11.65;5.28;;;;;;;;;;6184608;23;20164;-91
2021/09/03 01:09:44;;;;;;;9.98;4.68;;;;;;;;;;6186019;23;20152;-91
2021/09/03 01:12:52;;;;;;;12.90;4.90;;;;;;;;;;6185648;23;20172;-91
2021/09/03 01:15:57;;;;;;;9.95;5.20;;;;;;;;;;6184935;23;20168;-90
2021/09/03 01:19:03;;;;;;;10.63;5.00;;;;;;;;;;6185124;23;20257;-90
2021/09/03 01:22:10;;;;;;;10.75;5.10;;;;;;;;;;6185720;23;20164;-90
2021/09/03 01:25:15;;;;;;;14.02;5.32;;;;;;;;;;6185363;23;20247;-91
2021/09/03 01:28:21;;;;;;;11.10;4.93;;;;;;;;;;6187615;23;20619;-92
2021/09/03 01:31:26;;;;;;;9.82;4.82;;;;;;;;;;6187303;23;20167;-92
2021/09/03 01:34:31;;;;;;;11.02;4.90;;;;;;;;;;6186304;23;20168;-89
2021/09/03 01:37:38;;;;;;;10.50;4.97;;;;;;;;;;6186546;23;20175;-90
2021/09/03 01:40:43;;;;;;;12.25;5.60;;;;;;;;;;6184689;23;20176;-93
2021/09/03 01:43:49;;;;;;;10.73;4.65;;;;;;;;;;6185255;23;20195;-91
2021/09/03 01:46:55;;;;;;;10.30;4.78;;;;;;;;;;6185610;23;20171;-90
2021/09/03 01:49:59;;;;;;;9.75;5.18;;;;;;;;;;6185259;23;20251;-91
2021/09/03 01:53:06;;;;;;;8.68;4.85;;;;;;;;;;6185265;23;20164;-93
2021/09/03 01:56:11;;;;;;;12.52;5.78;;;;;;;;;;6186628;23;20239;-92
2021/09/03 01:59:17;;;;;;;20.38;6.03;;;;;;;;;;6185270;23;20167;-90
2021/09/03 02:02:22;;;;;;;11.82;6.15;;;;;;;;;;6186976;23;20161;-92
2021/09/03 02:05:27;;;;;;;49.80;6.63;;;;;;;;;;6173255;23;20192;-92
2021/09/03 02:08:34;;;;;;;11.88;5.68;;;;;;;;;;6172644;23;20288;-91
2021/09/03 02:11:40;;;;;;;17.05;5.90;;;;;;;;;;6173352;23;20160;-90
2021/09/03 02:14:46;;;;;;;11.02;5.40;;;;;;;;;;6172104;23;20168;-92
2021/09/03 02:17:50;;;;;;;10.23;5.47;;;;;;;;;;6172242;23;20156;-92
2021/09/03 02:20:56;;;;;;;12.13;5.28;;;;;;;;;;6171396;23;20240;-91
2021/09/03 02:24:02;;;;;;;11.88;6.03;;;;;;;;;;6171775;23;20193;-90
2021/09/03 02:27:08;;;;;;;9.60;5.18;;;;;;;;;;6171775;23;20202;-92
2021/09/03 02:30:14;;;;;;;10.93;5.65;;;;;;;;;;6171658;23;20169;-92
2021/09/03 02:33:19;;;;;;;12.13;6.05;;;;;;;;;;6169928;23;20220;-90
2021/09/03 02:36:24;;;;;;;12.00;6.03;;;;;;;;;;6170810;23;20217;-91
2021/09/03 02:39:31;;;;;;;11.77;5.90;;;;;;;;;;6171349;23;20209;-92
2021/09/03 02:42:36;;;;;;;11.25;5.90;;;;;;;;;;6171586;23;20168;-88
2021/09/03 02:45:41;;;;;;;10.80;6.45;;;;;;;;;;6171977;23;20168;-91
2021/09/03 02:48:47;;;;;;;10.40;6.03;;;;;;;;;;6170891;23;20220;-91
2021/09/03 02:51:52;;;;;;;14.02;5.50;;;;;;;;;;6172703;23;20167;-92
2021/09/03 02:54:58;;;;;;;10.10;5.32;;;;;;;;;;6172083;23;20320;-91
2021/09/03 02:58:03;;;;;;;17.92;5.80;;;;;;;;;;6170960;23;20152;-93
2021/09/03 03:01:09;;;;;;;10.15;5.30;;;;;;;;;;6173020;23;20212;-92
2021/09/03 03:04:14;;;;;;;10.55;5.18;;;;;;;;;;6180936;23;20548;-91
2021/09/03 03:07:19;;;;;;;8.65;5.07;;;;;;;;;;6183660;23;20187;-93
2021/09/03 03:10:26;;;;;;;9.30;5.10;;;;;;;;;;6184648;23;20155;-92
2021/09/03 03:13:31;;;;;;;10.18;5.15;;;;;;;;;;6184774;23;20231;-90
2021/09/03 03:16:36;;;;;;;10.95;5.30;;;;;;;;;;6184474;23;20225;-93
2021/09/03 03:19:42;;;;;;;10.40;5.28;;;;;;;;;;6184983;23;20160;-92
2021/09/03 03:22:47;;;;;;;12.02;5.28;;;;;;;;;;6184217;23;20167;-93
2021/09/03 03:25:55;;;;;;;10.00;5.68;;;;;;;;;;6184896;23;20156;-90
2021/09/03 03:29:01;;;;;;;11.30;6.05;;;;;;;;;;6184135;23;20168;-93
2021/09/03 03:32:06;;;;;;;12.77;6.18;;;;;;;;;;6185544;23;20167;-92
2021/09/03 03:35:12;;;;;;;11.52;6.15;;;;;;;;;;6187027;23;20184;-90
2021/09/03 03:38:18;;;;;;;13.68;6.45;;;;;;;;;;6185708;23;20167;-91
2021/09/03 03:41:24;;;;;;;13.52;6.40;;;;;;;;;;6184698;23;20187;-92
2021/09/03 03:44:29;;;;;;;13.43;6.57;;;;;;;;;;6184343;23;20175;-92
2021/09/03 03:47:34;;;;;;;14.82;6.30;;;;;;;;;;6184763;23;20259;-92
2021/09/03 03:50:39;;;;;;;13.10;6.57;;;;;;;;;;6185022;23;20263;-91
2021/09/03 03:53:44;;;;;;;15.95;6.82;;;;;;;;;;6183766;23;20244;-90
2021/09/03 03:56:51;;;;;;;15.00;6.43;;;;;;;;;;6183356;23;20208;-92
2021/09/03 03:59:56;;;;;;;15.73;5.97;;;;;;;;;;6183708;23;20172;-90
2021/09/03 04:07:21;;;;;;;13.10;6.45;;;;;;;;;;6200118;23;20247;-90
2021/09/03 04:10:32;;;;;;;16.17;6.40;;;;;;;;;;6182471;23;20196;-92
2021/09/03 04:13:38;;;;;;;12.85;6.15;;;;;;;;;;6182674;23;20175;-91
2021/09/03 04:16:44;;;;;;;19.02;5.53;;;;;;;;;;6183218;23;20204;-92
2021/09/03 04:19:49;;;;;;;9.57;5.55;;;;;;;;;;6181351;23;20171;-90
2021/09/03 04:22:54;;;;;;;11.25;5.82;;;;;;;;;;6183579;23;20172;-91
2021/09/03 04:26:00;;;;;;;12.88;5.90;;;;;;;;;;6183044;23;20196;-91
2021/09/03 04:29:06;;;;;;;15.02;5.75;;;;;;;;;;6182493;23;20514;-91
2021/09/03 04:32:12;;;;;;;9.82;5.45;;;;;;;;;;6182000;23;20156;-92
2021/09/03 04:35:17;;;;;;;14.30;5.70;;;;;;;;;;6183068;23;20199;-90
2021/09/03 04:38:23;;;;;;;10.40;5.82;;;;;;;;;;6183093;23;20168;-92
2021/09/03 04:41:28;;;;;;;12.18;5.97;;;;;;;;;;6182248;23;20292;-93
2021/09/03 04:44:36;;;;;;;13.40;5.70;;;;;;;;;;6182856;23;20194;-92
2021/09/03 04:47:42;;;;;;;14.13;5.32;;;;;;;;;;6183231;23;20186;-92
2021/09/03 04:50:47;;;;;;;10.50;5.63;;;;;;;;;;6182324;23;20171;-90
2021/09/03 04:53:53;;;;;;;11.32;5.97;;;;;;;;;;6183338;23;20168;-91
2021/09/03 04:56:58;;;;;;;14.25;5.82;;;;;;;;;;6183642;23;20175;-91
2021/09/03 05:00:05;;;;;;;11.65;5.30;;;;;;;;;;6185303;23;20171;-90
2021/09/03 05:03:10;;;;;;;15.27;6.05;;;;;;;;;;6183203;23;20670;-91
2021/09/03 05:06:16;;;;;;;10.80;4.90;;;;;;;;;;6183152;23;20247;-90
2021/09/03 05:09:22;;;;;;;13.95;5.25;;;;;;;;;;6181673;23;20220;-91
2021/09/03 05:12:27;;;;;;;14.63;5.75;;;;;;;;;;6182753;23;20168;-92
2021/09/03 05:15:35;;;;;;;15.70;5.25;;;;;;;;;;6183573;23;20647;-91
2021/09/03 05:18:40;;;;;;;10.93;5.93;;;;;;;;;;6181750;23;20168;-90
2021/09/03 05:21:46;;;;;;;18.02;6.53;;;;;;;;;;6181544;23;20175;-89
2021/09/03 05:24:51;;;;;;;11.60;5.75;;;;;;;;;;6179323;23;20323;-90
2021/09/03 05:28:06;;;;;;;12.80;6.30;;;;;;;;;;6186082;23;20191;-91
2021/09/03 05:31:22;;;;;;;17.02;5.93;;;;;;;;;;6186261;23;20260;-90
2021/09/03 05:34:27;;;;;;;13.30;5.65;;;;;;;;;;6187234;23;20170;-88
2021/09/03 05:37:37;;;;;;;17.63;7.03;;;;;;;;;;6188165;23;20159;-90
2021/09/03 05:40:44;;;;;;;9.18;4.65;;;;;;;;;;6183726;23;20220;-91
2021/09/03 05:43:51;;;;;;;10.65;5.40;;;;;;;;;;6203149;23;20224;-90
2021/09/03 05:46:58;;;;;;;14.75;5.07;;;;;;;;;;6182351;23;20163;-91
2021/09/03 05:50:04;;;;;;;19.90;6.07;;;;;;;;;;6186050;23;20160;-91
2021/09/03 05:53:09;;;;;;;13.98;4.85;;;;;;;;;;6184286;23;20183;-92
2021/09/03 05:56:16;;;;;;;15.27;5.97;;;;;;;;;;6185507;23;20151;-90
2021/09/03 05:59:22;;;;;;;11.95;6.05;;;;;;;;;;6182487;23;20168;-93
2021/09/03 06:02:29;;;;;;;10.40;5.80;;;;;;;;;;6187172;23;20168;-90
2021/09/03 06:05:35;;;;;;;11.35;5.70;;;;;;;;;;6184076;23;20259;-91
2021/09/03 06:08:40;;;;;;;8.52;4.93;;;;;;;;;;6184873;23;20171;-92
2021/09/03 06:11:46;;;;;;;8.15;4.40;;;;;;;;;;6183492;23;20225;-91
2021/09/03 06:14:51;;;;;;;8.77;4.30;;;;;;;;;;6183332;23;20288;-92
2021/09/03 06:17:58;;;;;;;7.68;3.78;;;;;;;;;;6183261;23;20215;-92
2021/09/03 06:21:02;;;;;;;7.57;4.35;;;;;;;;;;6181641;23;20164;-93
2021/09/03 06:24:27;;;;;;;9.27;5.18;;;;;;;;;;6183596;23;20155;-93
2021/09/03 06:30:52;;;;;;;8.73;4.90;;;;;;;;;;6182731;23;20216;-91
2021/09/03 06:33:59;;;;;;;14.98;5.78;;;;;;;;;;6183113;23;20398;-91
2021/09/03 06:37:05;;;;;;;7.55;4.32;;;;;;;;;;6184763;23;20250;-92
2021/09/03 06:40:11;;;;;;;7.28;4.82;;;;;;;;;;6184954;23;20155;-91
2021/09/03 06:43:17;;;;;;;7.47;4.55;;;;;;;;;;6187183;23;20214;-90
2021/09/03 06:46:25;;;;;;;7.53;4.53;;;;;;;;;;6183153;23;20200;-92
2021/09/03 06:49:33;;;;;;;6.38;4.18;;;;;;;;;;6185071;23;20156;-92
2021/09/03 06:52:38;;;;;;;10.05;4.88;;;;;;;;;;6187431;23;20168;-91
2021/09/03 06:55:43;;;;;;;10.77;4.38;;;;;;;;;;6186100;23;20251;-90
2021/09/03 06:58:49;;;;;;;10.48;4.47;;;;;;;;;;6189448;23;20215;-93
2021/09/03 07:01:54;;;;;;;8.00;3.90;;;;;;;;;;6185532;23;20180;-89
2021/09/03 07:05:00;;;;;;;10.73;4.25;;;;;;;;;;6181681;23;20195;-90
2021/09/03 07:08:06;;;;;;;7.03;4.10;;;;;;;;;;6169269;23;20196;-92
2021/09/03 07:11:12;;;;;;;6.47;3.92;;;;;;;;;;6172180;23;20159;-91
2021/09/03 07:14:18;;;;;;;7.20;3.63;;;;;;;;;;6173223;23;20172;-93
2021/09/03 07:17:23;;;;;;;6.53;3.55;;;;;;;;;;6170874;23;20168;-93
2021/09/03 07:20:31;;;;;;;6.90;3.95;;;;;;;;;;6170316;23;20172;-92
2021/09/03 07:23:37;;;;;;;8.52;3.88;;;;;;;;;;6170799;23;20152;-92
2021/09/03 22:03:09;;;;;;;11.68;5.80;;;;;;;;;;6209905;23;20533;-92
2021/09/03 22:06:14;;;;;;;14.80;6.80;;;;;;;;;;6189607;23;20191;-93
2021/09/03 22:09:19;;;;;;;13.25;6.28;;;;;;;;;;6183764;23;20187;-91
2021/09/03 22:12:24;;;;;;;13.45;6.50;;;;;;;;;;6184687;23;20175;-91
2021/09/03 22:15:30;;;;;;;10.48;5.43;;;;;;;;;;6183883;23;20211;-91
2021/09/03 22:18:37;;;;;;;14.75;6.00;;;;;;;;;;6185528;23;20678;-91
2021/09/03 22:21:42;;;;;;;14.13;6.18;;;;;;;;;;6184570;23;20167;-91
2021/09/03 22:24:47;;;;;;;10.95;6.10;;;;;;;;;;6186415;23;20163;-92
2021/09/03 22:27:52;;;;;;;11.40;6.15;;;;;;;;;;6184579;23;20216;-90
2021/09/03 22:30:58;;;;;;;13.45;5.70;;;;;;;;;;6186884;23;20152;-91
2021/09/03 22:34:05;;;;;;;10.88;5.85;;;;;;;;;;6186659;23;20216;-90
2021/09/03 22:37:11;;;;;;;13.05;5.47;;;;;;;;;;6186261;23;20167;-89
2021/09/03 22:40:17;;;;;;;10.13;5.57;;;;;;;;;;6187212;23;20180;-91
2021/09/03 22:43:23;;;;;;;15.27;5.60;;;;;;;;;;6186899;23;20176;-92
2021/09/03 22:46:28;;;;;;;10.98;5.57;;;;;;;;;;6185713;23;20174;-91
2021/09/03 22:49:35;;;;;;;11.27;5.65;;;;;;;;;;6185181;23;20172;-89
2021/09/03 22:52:40;;;;;;;11.70;5.50;;;;;;;;;;6184486;23;20175;-92
2021/09/03 22:55:46;;;;;;;13.45;5.65;;;;;;;;;;6186498;23;20208;-92
2021/09/03 22:58:51;;;;;;;9.70;5.53;;;;;;;;;;6185969;23;20175;-90
2021/09/03 23:08:38;;;;;;;13.90;6.28;;;;;;;;;;6184601;23;20209;-93
2021/09/03 23:11:43;;;;;;;11.40;5.63;;;;;;;;;;6185543;23;20172;-92
2021/09/03 23:14:49;;;;;;;12.40;5.78;;;;;;;;;;6186035;23;20188;-91
2021/09/03 23:17:54;;;;;;;13.27;6.18;;;;;;;;;;6187128;23;20199;-92
2021/09/03 23:20:59;;;;;;;11.68;5.85;;;;;;;;;;6185251;23;20168;-90
2021/09/03 23:24:06;;;;;;;12.15;5.85;;;;;;;;;;6184668;23;20160;-92
2021/09/03 23:27:11;;;;;;;11.23;5.32;;;;;;;;;;6185464;23;20269;-91
2021/09/03 23:30:17;;;;;;;12.95;5.95;;;;;;;;;;6184549;23;20183;-91
2021/09/03 23:33:23;;;;;;;10.85;5.35;;;;;;;;;;6184498;23;20169;-90
2021/09/03 23:36:28;;;;;;;12.05;5.85;;;;;;;;;;6184825;23;20192;-93
2021/09/03 23:39:35;;;;;;;10.88;5.60;;;;;;;;;;6185262;23;20171;-93
2021/09/03 23:42:40;;;;;;;10.90;5.47;;;;;;;;;;6184606;23;20175;-91
2021/09/03 23:45:45;;;;;;;14.55;5.70;;;;;;;;;;6184842;23;20249;-91
2021/09/03 23:48:50;;;;;;;9.45;5.38;;;;;;;;;;6184826;23;20212;-90
2021/09/03 23:51:55;;;;;;;11.70;5.47;;;;;;;;;;6184958;23;20221;-93
2021/09/03 23:55:02;;;;;;;13.07;6.30;;;;;;;;;;6184877;23;20171;-93
2021/09/03 23:58:07;;;;;;;10.45;5.53;;;;;;;;;;6183830;23;20240;-90
